Time;durP1;ratioP1;P1;durP2;ratioP2;P2;SDS_P1;SDS_P2;PMS_P1;PMS_P2;Temp;Humidity;BMP_temperature;BMP_pressure;BME280_temperature;BME280_humidity;BME280_pressure;Samples;Min_cycle;Max_cycle;Signal;HPM_P1;HPM_P2
2023/09/19 00:00:49;;;;;;;;;;;19.40;62.80;;;15.33;100.00;95433.16;4994130;28;19971;-53
2023/09/19 00:03:15;;;;;;;;;;;19.40;62.90;;;15.38;100.00;95424.97;4993320;28;20724;-52
2023/09/19 00:05:45;;;;;;;;;;;19.40;63.10;;;15.45;100.00;95429.97;4993044;28;19920;-49
2023/09/19 00:08:13;;;;;;;;;;;19.50;63.20;;;15.49;100.00;95428.28;4993762;28;19943;-49
2023/09/19 00:10:41;;;;;;;;;;;19.50;63.20;;;15.52;100.00;95419.63;4992701;28;20013;-50
2023/09/19 00:13:07;;;;;;;;;;;19.50;63.10;;;15.54;100.00;95425.47;4993127;28;19948;-50
2023/09/19 00:15:49;;;;;;;;;;;19.50;63.00;;;15.59;100.00;95429.94;4993729;28;19909;-51
2023/09/19 00:18:17;;;;;;;;;;;19.50;63.00;;;15.57;100.00;95427.56;4993842;28;19937;-49
2023/09/19 00:20:43;;;;;;;;;;;19.50;63.70;;;15.58;100.00;95428.38;4993306;28;20342;-47
2023/09/19 00:23:08;;;;;;;;;;;19.50;62.90;;;15.57;100.00;95437.50;4992096;28;19910;-49
2023/09/19 00:25:37;;;;;;;;;;;19.50;63.00;;;15.59;100.00;95433.44;4993536;28;19920;-50
2023/09/19 00:28:07;;;;;;;;;;;19.50;62.90;;;15.57;100.00;95438.28;4992512;28;19959;-49
2023/09/19 00:30:34;;;;;;;;;;;19.50;62.90;;;15.55;100.00;95432.44;4993660;28;19913;-49
2023/09/19 00:33:01;;;;;;;;;;;19.50;62.90;;;15.48;100.00;95435.53;4992964;28;19981;-52
2023/09/19 00:35:27;;;;;;;;;;;19.50;63.00;;;15.47;100.00;95431.25;4986780;28;20295;-49
2023/09/19 00:37:53;;;;;;;;;;;19.40;63.10;;;15.52;100.00;95432.25;4993430;28;19909;-50
2023/09/19 00:40:20;;;;;;;;;;;19.40;63.10;;;15.47;100.00;95444.66;4992466;28;19909;-54
2023/09/19 00:42:48;;;;;;;;;;;19.40;63.10;;;15.44;100.00;95439.88;4993220;28;19916;-53
2023/09/19 00:45:17;;;;;;;;;;;19.40;63.30;;;15.43;100.00;95430.25;4992789;28;19910;-51
2023/09/19 00:47:49;;;;;;;;;;;19.30;63.30;;;15.45;100.00;95436.13;4991758;28;19963;-50
2023/09/19 00:50:19;;;;;;;;;;;19.30;63.40;;;15.46;100.00;95444.97;4978452;28;19948;-52
2023/09/19 00:52:49;;;;;;;;;;;19.30;63.40;;;15.46;100.00;95439.59;4992342;28;19953;-52
2023/09/19 00:55:19;;;;;;;;;;;19.30;63.40;;;15.45;100.00;95436.13;4991231;28;19909;-53
2023/09/19 00:57:46;;;;;;;;;;;19.40;63.50;;;15.44;100.00;95439.09;4993370;28;19949;-51
2023/09/19 01:00:15;;;;;;;;;;;19.40;63.70;;;15.47;100.00;95441.97;4987497;28;19917;-50
2023/09/19 01:02:44;;;;;;;;;;;19.40;63.40;;;15.46;100.00;95434.25;4987123;28;20185;-52
2023/09/19 01:05:12;;;;;;;;;;;19.40;63.30;;;15.46;100.00;95443.09;4991802;28;19941;-54
2023/09/19 01:07:40;;;;;;;;;;;19.40;63.20;;;15.44;100.00;95437.22;4992638;28;19913;-55
2023/09/19 01:10:09;;;;;;;;;;;19.40;63.20;;;15.41;100.00;95437.00;4992501;28;19913;-52
2023/09/19 01:13:24;;;;;;;;;;;19.50;63.30;;;15.41;100.00;95434.31;4992401;28;19948;-55
2023/09/19 01:16:35;;;;;;;;;;;19.40;63.20;;;15.42;100.00;95444.00;4992651;28;19914;-54
2023/09/19 01:19:57;;;;;;;;;;;19.40;63.20;;;15.37;100.00;95442.19;4981699;28;20346;-53
2023/09/19 01:22:33;;;;;;;;;;;19.40;63.20;;;15.38;100.00;95445.66;4990811;28;19920;-49
2023/09/19 01:25:26;;;;;;;;;;;19.40;63.30;;;15.35;100.00;95452.41;4975927;28;19944;-47
2023/09/19 01:28:31;;;;;;;;;;;19.40;63.30;;;15.38;100.00;95459.88;4990482;28;19909;-47
2023/09/19 01:30:59;;;;;;;;;;;19.40;63.30;;;15.38;100.00;95451.03;4992661;28;20406;-53
2023/09/19 01:33:26;;;;;;;;;;;19.40;63.30;;;15.37;100.00;95452.91;4990516;28;19949;-53
2023/09/19 01:35:53;;;;;;;;;;;19.40;63.30;;;15.37;100.00;95460.97;4985921;28;19932;-48
2023/09/19 01:38:20;;;;;;;;;;;19.40;63.30;;;15.34;100.00;95455.41;4992455;28;20329;-53
2023/09/19 01:41:06;;;;;;;;;;;19.40;63.30;;;15.31;100.00;95459.47;4987272;28;19941;-55
2023/09/19 01:43:42;;;;;;;;;;;19.30;63.10;;;15.25;100.00;95450.72;4960700;28;20000;-49
2023/09/19 01:46:34;;;;;;;;;;;19.30;63.10;;;15.18;100.00;95453.00;4989808;28;19910;-52
2023/09/19 01:49:03;;;;;;;;;;;19.30;63.10;;;15.13;100.00;95449.63;4975381;28;19963;-51
2023/09/19 01:52:00;;;;;;;;;;;19.30;63.10;;;15.08;100.00;95452.41;4992312;28;20366;-53
2023/09/19 01:54:52;;;;;;;;;;;19.20;63.10;;;15.04;100.00;95457.53;4990306;28;19990;-54
2023/09/19 01:57:30;;;;;;;;;;;19.20;63.20;;;15.00;100.00;95461.91;4991879;28;19957;-55
2023/09/19 02:00:11;;;;;;;;;;;19.10;63.20;;;14.96;100.00;95459.03;4976866;28;19910;-55
2023/09/19 02:02:47;;;;;;;;;;;19.10;63.40;;;14.97;100.00;95460.59;4989841;28;19909;-55
2023/09/19 02:05:22;;;;;;;;;;;19.10;63.50;;;15.00;100.00;95456.53;4972306;28;19920;-55
2023/09/19 02:07:48;;;;;;;;;;;19.10;63.60;;;15.00;100.00;95457.34;4984061;28;19909;-55
2023/09/19 02:10:14;;;;;;;;;;;19.10;63.60;;;15.00;100.00;95456.53;4988082;28;19913;-52
2023/09/19 02:12:40;;;;;;;;;;;19.10;63.60;;;15.01;100.00;95455.44;4991669;28;19921;-51
2023/09/19 02:15:06;;;;;;;;;;;19.10;63.60;;;15.00;100.00;95451.97;4990914;28;20279;-51
2023/09/19 02:17:32;;;;;;;;;;;19.10;63.80;;;15.03;100.00;95447.91;4990559;28;19909;-54
2023/09/19 02:20:03;;;;;;;;;;;19.10;63.80;;;15.04;100.00;95461.03;4991296;28;19917;-54
2023/09/19 02:22:29;;;;;;;;;;;19.10;63.90;;;15.07;100.00;95464.22;4991317;28;19909;-55
2023/09/19 02:24:58;;;;;;;;;;;19.10;63.90;;;15.09;100.00;95456.66;4991238;28;19978;-53
2023/09/19 02:27:24;;;;;;;;;;;19.10;63.90;;;15.12;100.00;95467.59;4991478;28;20319;-51
2023/09/19 02:29:49;;;;;;;;;;;19.10;63.90;;;15.12;100.00;95469.50;4990544;28;19909;-54
2023/09/19 02:32:18;;;;;;;;;;;19.20;64.00;;;15.14;100.00;95472.69;4991370;28;19921;-53
2023/09/19 02:34:44;;;;;;;;;;;19.20;63.90;;;15.14;100.00;95476.16;4989365;28;19909;-51
2023/09/19 02:37:10;;;;;;;;;;;19.20;63.90;;;15.15;100.00;95479.63;4987620;28;19925;-55
2023/09/19 02:39:36;;;;;;;;;;;19.20;63.90;;;15.15;100.00;95471.59;4985769;28;20265;-48
2023/09/19 02:42:03;;;;;;;;;;;19.20;63.90;;;15.17;100.00;95480.16;4976135;28;19909;-53
2023/09/19 02:44:30;;;;;;;;;;;19.20;63.80;;;15.18;100.00;95484.41;4981498;28;19913;-53
2023/09/19 02:46:57;;;;;;;;;;;19.20;63.80;;;15.20;100.00;95484.91;4985744;28;19909;-52
2023/09/19 02:49:23;;;;;;;;;;;19.30;64.00;;;15.24;100.00;95480.53;4987635;28;19909;-54
2023/09/19 02:51:49;;;;;;;;;;;19.30;63.90;;;15.26;100.00;95481.84;4976771;28;20379;-52
2023/09/19 02:54:15;;;;;;;;;;;19.30;63.90;;;15.30;100.00;95471.31;4978888;28;19914;-53
2023/09/19 02:56:41;;;;;;;;;;;19.30;63.80;;;15.31;100.00;95472.88;4983085;28;19917;-54
2023/09/19 02:59:09;;;;;;;;;;;19.30;63.80;;;15.34;100.00;95468.81;4980927;28;19909;-50
2023/09/19 03:01:38;;;;;;;;;;;19.30;63.70;;;15.32;100.00;95461.06;4983535;28;20279;-55
2023/09/19 03:04:08;;;;;;;;;;;19.30;63.70;;;15.33;100.00;95459.97;4982566;28;19925;-49
2023/09/19 03:06:34;;;;;;;;;;;19.40;63.80;;;15.36;100.00;95455.91;4984658;28;19953;-53
2023/09/19 03:09:00;;;;;;;;;;;19.40;63.70;;;15.34;100.00;95458.09;4989282;28;20025;-49
2023/09/19 03:11:26;;;;;;;;;;;19.40;63.70;;;15.30;100.00;95457.91;4978985;28;19916;-49
2023/09/19 03:13:53;;;;;;;;;;;19.40;63.70;;;15.31;100.00;95462.16;4991477;28;19976;-49
2023/09/19 03:16:21;;;;;;;;;;;19.30;63.60;;;15.28;100.00;95458.16;4979426;28;20349;-49
2023/09/19 03:21:19;;;;;;;;;;;19.30;63.50;;;15.20;100.00;95468.81;5011104;28;19936;-50
2023/09/19 03:23:45;;;;;;;;;;;19.20;63.40;;;15.16;100.00;95473.16;5004928;28;19917;-47
2023/09/19 03:26:13;;;;;;;;;;;19.20;63.40;;;15.11;100.00;95474.06;5008096;28;19948;-46
2023/09/19 03:28:38;;;;;;;;;;;19.20;63.50;;;15.08;100.00;95480.03;5004484;28;19963;-46
2023/09/19 03:31:06;;;;;;;;;;;19.20;63.50;;;15.07;100.00;95477.63;5013925;28;19913;-45
2023/09/19 03:33:33;;;;;;;;;;;19.20;63.60;;;15.05;100.00;95475.25;5013597;28;20260;-45
2023/09/19 03:36:01;;;;;;;;;;;19.20;63.60;;;15.02;100.00;95476.63;5010036;28;19963;-45
2023/09/19 03:38:28;;;;;;;;;;;19.10;63.50;;;15.04;100.00;95469.09;5012441;28;19975;-49
2023/09/19 03:40:54;;;;;;;;;;;19.10;63.50;;;15.04;100.00;95474.47;5012852;28;19913;-48
2023/09/19 03:43:20;;;;;;;;;;;19.10;63.60;;;15.07;100.00;95477.63;5013384;28;19917;-47
2023/09/19 03:45:49;;;;;;;;;;;19.20;63.70;;;15.07;100.00;95473.03;5014366;28;20437;-51
2023/09/19 03:48:15;;;;;;;;;;;19.20;63.70;;;15.09;100.00;95478.13;5012690;28;19915;-49
2023/09/19 03:50:40;;;;;;;;;;;19.10;63.60;;;15.11;100.00;95470.59;5013792;28;19913;-47
2023/09/19 03:53:09;;;;;;;;;;;19.10;63.60;;;15.14;100.00;95465.44;5012397;28;20365;-50
2023/09/19 03:55:41;;;;;;;;;;;19.20;63.70;;;15.14;100.00;95461.94;5013707;28;20457;-47
2023/09/19 03:58:07;;;;;;;;;;;19.20;63.60;;;15.16;100.00;95462.44;5013539;28;19916;-45
2023/09/19 04:00:34;;;;;;;;;;;19.20;63.60;;;15.16;100.00;95468.59;5012833;28;19913;-45
2023/09/19 04:03:02;;;;;;;;;;;19.20;63.50;;;15.17;100.00;95469.41;5013268;28;19929;-47
2023/09/19 04:05:28;;;;;;;;;;;19.20;63.50;;;15.14;100.00;95468.09;5012660;28;20433;-48
2023/09/19 04:07:53;;;;;;;;;;;19.30;63.60;;;15.16;100.00;95473.97;5012887;28;19948;-51
2023/09/19 04:10:20;;;;;;;;;;;19.30;63.50;;;15.19;100.00;95469.88;5012257;28;20368;-50
2023/09/19 04:12:56;;;;;;;;;;;19.20;63.30;;;15.19;100.00;95470.69;5012818;28;20269;-47
2023/09/19 04:15:23;;;;;;;;;;;19.30;63.40;;;15.21;100.00;95473.88;5012950;28;19958;-45
2023/09/19 04:17:50;;;;;;;;;;;19.30;63.40;;;15.20;100.00;95474.97;5012519;28;20265;-50
2023/09/19 04:20:18;;;;;;;;;;;19.30;63.30;;;15.22;100.00;95480.81;5012870;28;19940;-47
2023/09/19 04:22:43;;;;;;;;;;;19.30;63.30;;;15.21;100.00;95476.56;5011951;28;19920;-49
2023/09/19 04:25:10;;;;;;;;;;;19.30;63.30;;;15.25;100.00;95474.88;5013459;28;19908;-46
2023/09/19 04:27:35;;;;;;;;;;;19.30;63.30;;;15.29;100.00;95477.75;5013171;28;19940;-45
2023/09/19 04:30:03;;;;;;;;;;;19.40;63.30;;;15.32;100.00;95492.47;5011850;28;19955;-49
2023/09/19 04:32:29;;;;;;;;;;;19.30;63.20;;;15.31;100.00;95490.88;5012802;28;19995;-50
2023/09/19 04:34:59;;;;;;;;;;;19.40;63.20;;;15.32;100.00;95490.56;5010212;28;19913;-49
2023/09/19 04:37:26;;;;;;;;;;;19.40;63.10;;;15.36;100.00;95482.75;5012830;28;20268;-45
2023/09/19 04:39:51;;;;;;;;;;;19.40;63.10;;;15.38;98.83;95491.28;5012985;28;19917;-48
2023/09/19 04:42:17;;;;;;;;;;;19.40;63.10;;;15.41;98.70;95485.31;5012040;28;20368;-47
2023/09/19 04:44:43;;;;;;;;;;;19.50;63.00;;;15.38;98.60;95497.44;5012445;28;19916;-46
2023/09/19 04:47:11;;;;;;;;;;;19.50;63.00;;;15.39;98.57;95498.25;5011923;28;19909;-49
2023/09/19 04:49:37;;;;;;;;;;;19.50;62.90;;;15.41;98.46;95490.69;5013124;28;19909;-46
2023/09/19 04:52:03;;;;;;;;;;;19.50;62.90;;;15.40;98.88;95489.91;5012507;28;19909;-48
2023/09/19 04:54:29;;;;;;;;;;;19.50;62.80;;;15.39;98.31;95495.56;5008794;28;19955;-49
2023/09/19 04:56:55;;;;;;;;;;;19.50;62.80;;;15.38;98.43;95500.13;5012266;28;19913;-48
2023/09/19 04:59:20;;;;;;;;;;;19.50;62.80;;;15.40;98.42;95510.56;5011360;28;19933;-47
2023/09/19 05:01:46;;;;;;;;;;;19.50;62.70;;;15.38;98.00;95510.84;5012757;28;20383;-46
2023/09/19 05:04:13;;;;;;;;;;;19.50;62.80;;;15.38;97.44;95515.44;5010767;28;20366;-46
2023/09/19 05:06:38;;;;;;;;;;;19.50;62.80;;;15.42;97.21;95525.31;5012486;28;20015;-50
2023/09/19 05:09:05;;;;;;;;;;;19.50;62.80;;;15.43;96.83;95521.50;5012359;28;19996;-47
2023/09/19 05:11:31;;;;;;;;;;;19.50;62.80;;;15.45;96.59;95522.03;5013718;28;20386;-45
2023/09/19 05:13:57;;;;;;;;;;;19.50;62.70;;;15.47;96.37;95519.03;5011867;28;19913;-46
2023/09/19 05:16:22;;;;;;;;;;;19.50;62.60;;;15.50;95.45;95529.16;5011093;28;19909;-51
2023/09/19 05:18:49;;;;;;;;;;;19.50;62.60;;;15.50;94.68;95521.13;5011301;28;20408;-47
2023/09/19 05:21:15;;;;;;;;;;;19.60;62.60;;;15.56;95.77;95527.97;5011951;28;19970;-46
2023/09/19 05:23:41;;;;;;;;;;;19.60;62.50;;;15.56;95.67;95529.88;5011015;28;19916;-47
2023/09/19 05:26:07;;;;;;;;;;;19.60;62.40;;;15.55;95.88;95537.13;5012326;28;20387;-47
2023/09/19 05:28:34;;;;;;;;;;;19.60;62.30;;;15.56;96.05;95536.03;5004978;28;19924;-45
2023/09/19 05:31:02;;;;;;;;;;;19.70;62.30;;;15.56;95.85;95544.09;5012154;28;19978;-45
2023/09/19 05:33:31;;;;;;;;;;;19.70;62.30;;;15.58;95.96;95538.44;5011393;28;19921;-46
2023/09/19 05:35:57;;;;;;;;;;;19.70;62.10;;;15.56;95.40;95540.63;5013005;28;20027;-50
2023/09/19 05:38:24;;;;;;;;;;;19.70;62.00;;;15.57;95.56;95539.50;5011582;28;20007;-46
2023/09/19 05:40:50;;;;;;;;;;;19.70;62.00;;;15.58;95.84;95549.19;5011219;28;20007;-46
2023/09/19 05:43:15;;;;;;;;;;;19.70;61.90;;;15.56;95.85;95548.66;5011512;28;20000;-46
2023/09/19 05:45:41;;;;;;;;;;;19.80;61.90;;;15.59;95.75;95550.75;5011328;28;19966;-48
2023/09/19 05:48:11;;;;;;;;;;;19.80;61.90;;;15.62;95.95;95552.84;5010725;28;19919;-50
2023/09/19 05:50:38;;;;;;;;;;;19.80;61.80;;;15.67;96.00;95560.84;5011617;28;20003;-48
2023/09/19 05:53:04;;;;;;;;;;;19.90;61.80;;;15.69;95.80;95559.44;5010761;28;20410;-47
2023/09/19 05:55:31;;;;;;;;;;;19.90;61.70;;;15.70;95.19;95561.06;5009251;28;19920;-45
2023/09/19 05:57:57;;;;;;;;;;;20.00;61.60;;;15.67;95.46;95560.84;5011287;28;19941;-46
2023/09/19 06:00:26;;;;;;;;;;;20.00;61.40;;;15.69;95.31;95561.34;5010332;28;20010;-46
2023/09/19 06:02:57;;;;;;;;;;;20.00;61.30;;;15.61;95.45;95564.69;5011369;28;19975;-46
2023/09/19 06:05:26;;;;;;;;;;;20.10;61.20;;;15.61;96.10;95573.53;5009981;28;19909;-51
2023/09/19 06:07:53;;;;;;;;;;;20.10;61.10;;;15.67;96.54;95569.69;5011173;28;19913;-45
2023/09/19 06:10:23;;;;;;;;;;;20.20;61.10;;;15.69;95.86;95572.88;5010303;28;19913;-47
2023/09/19 06:12:49;;;;;;;;;;;20.20;61.00;;;15.71;96.60;95572.59;5011397;28;19924;-47
2023/09/19 06:15:18;;;;;;;;;;;20.30;61.00;;;15.75;95.81;95572.78;5010643;28;19923;-47
2023/09/19 06:17:48;;;;;;;;;;;20.30;60.90;;;15.85;95.75;95580.63;5008079;28;19913;-47
2023/09/19 06:20:16;;;;;;;;;;;20.40;60.80;;;15.88;96.01;95577.34;5011151;28;20271;-45
2023/09/19 06:22:44;;;;;;;;;;;20.40;60.70;;;15.86;95.81;95571.50;5009633;28;20011;-49
2023/09/19 06:25:12;;;;;;;;;;;20.50;60.70;;;15.93;95.86;95569.22;5000516;28;19909;-49
2023/09/19 06:27:42;;;;;;;;;;;20.50;60.50;;;16.03;95.33;95573.59;4991062;28;19913;-50
2023/09/19 06:30:11;;;;;;;;;;;20.70;60.50;;;16.19;95.64;95580.25;5015074;28;19994;-49
2023/09/19 06:32:37;;;;;;;;;;;20.90;60.30;;;16.35;95.10;95578.81;5010861;28;19921;-47
2023/09/19 06:35:03;;;;;;;;;;;21.00;60.10;;;16.49;93.51;95583.41;5009647;28;19909;-48
2023/09/19 06:37:29;;;;;;;;;;;21.30;60.10;;;16.62;92.83;95582.56;5010803;28;19916;-49
2023/09/19 06:39:56;;;;;;;;;;;21.40;59.90;;;16.60;92.58;95577.47;5010647;28;19916;-45
2023/09/19 06:42:22;;;;;;;;;;;21.40;59.80;;;16.63;91.66;95582.25;5009946;28;19917;-46
2023/09/19 06:44:49;;;;;;;;;;;21.50;59.60;;;16.64;92.23;95580.38;5010155;28;19919;-51
2023/09/19 06:47:16;;;;;;;;;;;21.50;59.50;;;16.72;92.31;95582.34;5009647;28;19909;-46
2023/09/19 06:49:45;;;;;;;;;;;21.60;59.30;;;16.91;91.34;95584.09;5010619;28;21046;-46
2023/09/19 06:52:11;;;;;;;;;;;21.80;59.30;;;17.02;90.84;95593.53;4992996;28;19913;-51
2023/09/19 06:54:37;;;;;;;;;;;21.90;59.20;;;17.07;90.13;95598.78;5017658;28;19954;-47
2023/09/19 06:57:03;;;;;;;;;;;22.00;59.10;;;17.11;89.15;95597.09;5010727;28;19910;-46
2023/09/19 06:59:29;;;;;;;;;;;22.00;59.00;;;17.07;89.81;95596.91;5009448;28;19909;-46
2023/09/19 07:01:55;;;;;;;;;;;22.00;58.90;;;17.05;90.27;95601.00;5010869;28;19909;-50
2023/09/19 07:04:20;;;;;;;;;;;22.00;58.90;;;17.08;90.68;95605.78;5010207;28;19916;-48
2023/09/19 07:06:52;;;;;;;;;;;21.90;58.80;;;17.07;89.94;95607.66;5018214;28;19932;-48
2023/09/19 07:09:22;;;;;;;;;;;21.90;58.90;;;17.07;90.18;95613.03;5010578;28;20387;-48
2023/09/19 07:11:48;;;;;;;;;;;21.90;58.90;;;17.16;89.93;95618.50;5001661;28;19916;-47
2023/09/19 07:14:13;;;;;;;;;;;21.90;58.90;;;17.06;89.86;95613.34;5010105;28;19913;-46
2023/09/19 07:16:42;;;;;;;;;;;21.90;58.70;;;17.09;90.49;95613.53;5009655;28;19961;-46
2023/09/19 07:19:08;;;;;;;;;;;22.00;58.70;;;17.21;89.46;95620.28;5006980;28;20004;-47
2023/09/19 07:21:35;;;;;;;;;;;22.10;58.70;;;17.17;89.72;95609.31;5009705;28;20107;-48
2023/09/19 07:24:04;;;;;;;;;;;22.10;58.60;;;17.24;90.17;95609.69;5009438;28;19916;-45
2023/09/19 07:26:31;;;;;;;;;;;22.10;58.50;;;17.35;89.43;95621.78;5010379;28;19913;-45
2023/09/19 07:28:57;;;;;;;;;;;22.20;58.50;;;17.33;88.08;95617.84;5010749;28;19909;-46
2023/09/19 07:31:25;;;;;;;;;;;22.30;58.40;;;17.33;88.33;95615.94;5009093;28;19909;-45
2023/09/19 07:33:51;;;;;;;;;;;22.40;58.30;;;17.34;88.51;95625.59;5006738;28;19919;-46
2023/09/19 07:36:17;;;;;;;;;;;22.40;58.10;;;17.32;88.48;95618.91;5009654;28;20383;-47
2023/09/19 07:38:43;;;;;;;;;;;22.40;58.00;;;17.42;88.98;95623.25;5010316;28;19948;-48
2023/09/19 07:41:09;;;;;;;;;;;22.50;58.00;;;17.44;89.01;95621.06;5016855;28;19916;-49
2023/09/19 07:43:38;;;;;;;;;;;22.50;58.00;;;17.55;88.95;95628.59;5013837;28;19917;-48
2023/09/19 07:46:11;;;;;;;;;;;22.50;58.00;;;17.61;87.70;95621.16;5013850;28;19913;-47
2023/09/19 07:48:38;;;;;;;;;;;22.60;58.00;;;17.58;87.89;95629.88;5012999;28;19913;-47
2023/09/19 07:51:08;;;;;;;;;;;22.60;57.80;;;17.71;88.36;95637.09;5014738;28;20367;-46
2023/09/19 07:53:35;;;;;;;;;;;22.70;57.80;;;17.88;87.57;95631.00;5011988;28;20467;-46
2023/09/19 07:56:05;;;;;;;;;;;22.80;57.70;;;17.94;86.53;95635.16;5013693;28;20329;-50
2023/09/19 07:58:31;;;;;;;;;;;22.90;57.80;;;17.84;85.67;95640.03;5012621;28;20346;-46
2023/09/19 08:01:06;;;;;;;;;;;22.90;57.60;;;17.90;86.63;95646.88;5013908;28;20363;-46
2023/09/19 08:03:33;;;;;;;;;;;22.90;57.60;;;17.91;85.52;95654.66;5013285;28;19913;-47
2023/09/19 08:05:59;;;;;;;;;;;22.90;57.50;;;17.70;87.58;95648.16;5012495;28;19909;-47
2023/09/19 08:08:26;;;;;;;;;;;22.90;57.40;;;17.72;86.40;95652.13;5013249;28;19915;-50
2023/09/19 08:10:56;;;;;;;;;;;22.80;57.30;;;17.71;87.18;95649.75;5016818;28;19913;-46
2023/09/19 08:13:26;;;;;;;;;;;22.70;57.30;;;17.66;86.61;95645.28;5013940;28;19917;-46
2023/09/19 08:15:55;;;;;;;;;;;22.70;57.30;;;17.48;86.89;95659.72;5012325;28;20409;-48
2023/09/19 08:18:23;;;;;;;;;;;22.70;57.10;;;17.61;87.59;95661.56;5019520;28;19952;-49
2023/09/19 08:20:52;;;;;;;;;;;22.70;57.10;;;17.56;85.83;95656.31;5013186;28;19955;-46
2023/09/19 08:23:19;;;;;;;;;;;22.70;57.20;;;17.53;85.42;95663.09;5012319;28;19937;-47
2023/09/19 08:25:46;;;;;;;;;;;22.60;57.20;;;17.35;86.46;95670.25;5013131;28;20295;-47
2023/09/19 08:28:14;;;;;;;;;;;22.50;57.10;;;17.33;86.29;95667.09;5012804;28;19908;-47
2023/09/19 08:30:40;;;;;;;;;;;22.40;57.10;;;17.26;87.17;95666.69;5012416;28;19963;-49
2023/09/19 08:33:07;;;;;;;;;;;22.40;57.10;;;17.19;86.83;95666.34;5012635;28;20322;-47
2023/09/19 08:35:33;;;;;;;;;;;22.40;57.10;;;17.31;87.20;95665.81;5003831;28;20407;-46
2023/09/19 08:38:04;;;;;;;;;;;22.40;56.90;;;17.43;86.46;95670.66;5013047;28;19909;-47
2023/09/19 08:40:36;;;;;;;;;;;22.60;56.80;;;17.55;85.72;95677.06;5011737;28;20000;-48
2023/09/19 08:43:02;;;;;;;;;;;22.70;56.80;;;17.77;85.35;95667.41;5012255;28;19924;-46
2023/09/19 08:45:30;;;;;;;;;;;22.90;56.60;;;17.90;84.40;95671.94;5012440;28;19975;-47
2023/09/19 08:48:08;;;;;;;;;;;23.20;56.40;;;18.09;84.49;95673.63;5015371;28;19913;-46
2023/09/19 08:50:51;;;;;;;;;;;23.50;56.20;;;18.23;82.56;95690.47;5012528;28;19909;-46
2023/09/19 08:53:34;;;;;;;;;;;23.70;55.90;;;18.42;81.51;95679.44;5008895;28;20372;-47
2023/09/19 08:56:03;;;;;;;;;;;23.90;55.70;;;18.39;80.48;95686.25;5007385;28;19948;-46
2023/09/19 08:58:41;;;;;;;;;;;24.00;55.40;;;18.34;79.88;95689.09;5011282;28;20399;-46
2023/09/19 09:01:08;;;;;;;;;;;24.10;55.20;;;18.26;81.10;95689.84;4999481;28;20008;-47
2023/09/19 09:03:37;;;;;;;;;;;24.10;54.70;;;18.35;80.48;95685.28;5010609;28;19971;-46
2023/09/19 09:06:03;;;;;;;;;;;24.10;54.50;;;18.33;79.96;95689.41;5018865;28;19919;-46
2023/09/19 09:08:31;;;;;;;;;;;24.10;54.40;;;18.40;79.67;95678.97;5011152;28;19998;-46
2023/09/19 09:10:58;;;;;;;;;;;24.20;54.60;;;18.61;79.29;95681.88;5011402;28;19909;-46
2023/09/19 09:13:26;;;;;;;;;;;24.20;54.30;;;18.70;79.68;95683.50;5008701;28;19917;-46
2023/09/19 09:15:54;;;;;;;;;;;24.40;54.40;;;18.84;79.81;95686.13;5011980;28;19913;-46
2023/09/19 09:18:20;;;;;;;;;;;24.50;54.20;;;19.01;77.88;95695.34;5011113;28;20439;-48
2023/09/19 09:20:46;;;;;;;;;;;24.60;54.20;;;19.14;78.02;95695.19;5011851;28;20008;-47
2023/09/19 09:23:13;;;;;;;;;;;24.70;54.20;;;19.32;77.79;95692.53;5017997;28;19921;-46
2023/09/19 09:25:59;;;;;;;;;;;24.80;54.30;;;19.21;78.03;95699.31;5010089;28;19909;-50
2023/09/19 09:28:30;;;;;;;;;;;24.90;54.00;;;19.14;77.02;95702.50;5011000;28;19955;-46
2023/09/19 09:30:58;;;;;;;;;;;25.00;53.70;;;19.01;75.72;95690.72;5005912;28;19924;-48
2023/09/19 09:33:24;;;;;;;;;;;25.00;53.40;;;19.27;78.60;95695.38;5011261;28;19920;-47
2023/09/19 09:36:00;;;;;;;;;;;25.00;53.30;;;19.27;75.87;95698.84;5010004;28;19909;-47
2023/09/19 09:38:32;;;;;;;;;;;25.20;53.30;;;19.23;75.72;95694.41;5011063;28;19913;-47
2023/09/19 09:41:06;;;;;;;;;;;25.20;53.10;;;19.06;75.51;95690.59;5010114;28;20280;-47
2023/09/19 09:43:40;;;;;;;;;;;25.00;53.00;;;19.22;75.70;95695.53;5010611;28;19924;-46
2023/09/19 09:51:39;;;;;;;;;;;24.70;53.40;;;19.00;77.64;95694.56;5011330;28;20004;-48
2023/09/19 09:54:20;;;;;;;;;;;24.60;53.40;;;18.88;79.10;95695.16;5010494;28;20377;-48
2023/09/19 09:57:21;;;;;;;;;;;24.60;53.20;;;19.04;76.15;95686.63;5009502;28;19916;-49
2023/09/19 10:00:42;;;;;;;;;;;24.70;53.20;;;19.19;76.09;95688.84;5006275;28;19913;-46
2023/09/19 10:02:46;;;;;;;;;;;24.90;53.10;;;19.60;74.95;95693.78;5010394;28;19912;-47
2023/09/19 10:07:50;;;;;;;;;;;25.60;52.90;;;19.91;72.81;95692.03;5011227;28;19909;-47
2023/09/19 10:10:29;;;;;;;;;;;25.90;52.70;;;20.14;73.67;95687.19;5009585;28;19909;-48
2023/09/19 10:13:03;;;;;;;;;;;26.20;52.20;;;20.50;73.23;95692.16;5007998;28;20372;-48
2023/09/19 10:15:32;;;;;;;;;;;26.70;51.90;;;21.00;70.17;95686.03;4993714;28;19916;-47
2023/09/19 10:18:04;;;;;;;;;;;27.30;51.70;;;21.28;69.88;95686.31;5017656;28;20272;-47
2023/09/19 10:20:35;;;;;;;;;;;27.90;51.40;;;21.67;66.66;95681.56;4993729;28;19917;-49
2023/09/19 10:23:10;;;;;;;;;;;28.20;51.00;;;21.92;63.59;95679.72;5004472;28;19916;-47
2023/09/19 10:25:43;;;;;;;;;;;28.60;50.70;;;22.16;63.43;95670.88;5010878;28;19916;-46
2023/09/19 10:28:13;;;;;;;;;;;28.90;50.00;;;22.23;63.22;95679.25;5010713;28;19909;-51
2023/09/19 10:30:50;;;;;;;;;;;29.10;49.40;;;22.13;64.16;95676.94;4998369;28;19955;-47
2023/09/19 10:33:21;;;;;;;;;;;29.20;48.80;;;22.41;62.90;95679.84;4990551;28;19936;-48
2023/09/19 10:35:51;;;;;;;;;;;29.60;48.60;;;23.17;62.39;95678.38;5003268;28;19962;-47
2023/09/19 10:38:25;;;;;;;;;;;30.30;48.50;;;23.50;60.47;95674.63;5010958;28;19973;-48
2023/09/19 10:40:54;;;;;;;;;;;30.80;48.40;;;23.85;58.25;95677.59;5009670;28;20007;-48
2023/09/19 10:43:30;;;;;;;;;;;31.30;48.20;;;24.49;57.04;95688.59;5010891;28;19983;-47
2023/09/19 10:46:05;;;;;;;;;;;31.90;47.90;;;24.84;55.55;95678.53;5009142;28;19913;-48
2023/09/19 10:48:31;;;;;;;;;;;32.60;47.50;;;25.04;51.21;95679.41;5009857;28;20322;-47
2023/09/19 10:51:17;;;;;;;;;;;33.00;46.90;;;24.44;52.30;95678.75;5010583;28;19909;-46
2023/09/19 10:54:00;;;;;;;;;;;32.90;45.80;;;24.39;55.20;95682.50;4992484;28;19913;-50
2023/09/19 10:56:41;;;;;;;;;;;32.40;45.00;;;24.07;52.99;95678.97;5005074;28;20217;-48
2023/09/19 10:59:18;;;;;;;;;;;31.90;45.30;;;23.86;53.56;95683.84;5008553;28;19932;-49
2023/09/19 11:01:56;;;;;;;;;;;31.50;45.10;;;23.91;54.55;95684.38;5006245;28;19913;-48
2023/09/19 11:04:35;;;;;;;;;;;31.10;45.20;;;23.49;55.62;95671.13;5005726;28;20338;-49
2023/09/19 11:07:15;;;;;;;;;;;30.90;45.00;;;23.54;56.61;95670.91;5016090;28;19909;-48
2023/09/19 11:09:54;;;;;;;;;;;30.70;45.00;;;23.56;57.41;95674.03;5010331;28;20215;-47
2023/09/19 11:12:30;;;;;;;;;;;30.60;45.30;;;23.54;56.83;95670.13;5002955;28;19920;-46
2023/09/19 11:14:56;;;;;;;;;;;30.40;45.30;;;23.53;58.61;95663.06;5010180;28;19924;-47
2023/09/19 11:17:42;;;;;;;;;;;30.30;45.50;;;23.65;57.53;95657.59;5014678;28;19909;-47
2023/09/19 11:22:50;;;;;;;;;;;30.00;45.80;;;23.14;56.11;95648.38;5013517;28;20601;-48
2023/09/19 11:25:31;;;;;;;;;;;29.70;45.60;;;23.18;57.65;95646.53;5014264;28;19916;-50
2023/09/19 11:28:06;;;;;;;;;;;29.50;45.60;;;23.27;58.78;95649.91;5014350;28;19982;-48
2023/09/19 11:30:40;;;;;;;;;;;29.70;45.90;;;23.13;57.02;95644.88;5013164;28;20121;-48
2023/09/19 11:33:31;;;;;;;;;;;29.70;45.80;;;23.02;57.95;95646.47;5014306;28;19913;-47
2023/09/19 11:36:14;;;;;;;;;;;29.50;45.60;;;23.05;58.56;95643.84;5014907;28;19913;-49
2023/09/19 11:38:49;;;;;;;;;;;29.40;45.70;;;23.18;58.60;95633.75;5006791;28;19909;-46
2023/09/19 11:41:29;;;;;;;;;;;29.40;46.00;;;23.26;57.59;95637.47;5013902;28;19967;-49